Portada
METAR-TAF:

METAR-TAF

Aeroports :

Wakkanai, Japó

latitud: 45-24N, longitud: 141-48E, altitud: 8 m

Observació

L'informe es va fer fa 23 minuts, a les 04:34 UTC
Vent 18 kt del Sud-Oest
Temperatura 5°C
Humitat 87%
Pressió 1006 hPa
Visibilitat: 8000 m
Escasses núvols a una alçada de 600 ft
Cel ennuvolat a una alçada de 900 ft
Cel ennuvolat a una alçada de 1000 ft

METAR: RJCW 200434Z 23018KT 8000 FEW006 BKN009 BKN010 05/03 Q1006 RMK 1ST006 5ST009 6ST010 A2972

Hora: 13:57 (04:57 UTC)


TAF: manca

Observacions i pronòstics meteorològics de més de 4000 aeroports (METAR i TAF).

Les estacions disponibles són els punts grocs i vermells al mapa.

Posi el ratolí al punt desitjat per veure el nom de l'estació.

Feu clic per veure les observacions i els pronòstics meteorològics.

Per canviar el mapa: feu clic els botons verds amb una creu de color negre per apropar; al botó verd amb un guió per allunyar la imatge; o en les fletxes verdes per a mapes adjacents.


METAR-TAF: